Time;durP1;ratioP1;P1;durP2;ratioP2;P2;SDS_P1;SDS_P2;PMS_P1;PMS_P2;Temp;Humidity;BMP_temperature;BMP_pressure;BME280_temperature;BME280_humidity;BME280_pressure;Samples;Min_cycle;Max_cycle;Signal;HPM_P1;HPM_P2
2021/08/24 00:02:20;;;;;;;17.58;12.80;;;;;;;17.22;71.44;98432.28;4994416;28;20030;-74
2021/08/24 00:04:45;;;;;;;15.07;10.93;;;;;;;17.29;71.55;98420.66;5023985;28;20072;-73
2021/08/24 00:07:10;;;;;;;17.63;11.93;;;;;;;17.32;71.46;98433.81;5023961;28;20358;-73
2021/08/24 00:09:36;;;;;;;18.52;13.32;;;;;;;17.37;71.60;98426.09;5006431;28;20064;-73
2021/08/24 00:12:03;;;;;;;18.10;13.20;;;;;;;17.44;70.98;98430.28;5004987;28;20373;-73
2021/08/24 00:14:30;;;;;;;19.00;13.20;;;;;;;17.34;71.08;98428.72;5024013;28;20129;-73
2021/08/24 00:16:57;;;;;;;17.42;11.63;;;;;;;17.36;71.75;98427.25;5024682;28;20033;-74
2021/08/24 00:19:24;;;;;;;16.45;12.23;;;;;;;17.42;71.52;98436.13;5024898;28;20057;-74
2021/08/24 00:21:50;;;;;;;15.65;11.70;;;;;;;17.45;71.32;98435.47;5024281;28;20029;-74
2021/08/24 00:24:16;;;;;;;15.98;12.10;;;;;;;17.48;71.29;98434.78;5023441;28;20040;-73
2021/08/24 00:26:42;;;;;;;13.82;11.43;;;;;;;17.52;71.09;98432.16;5023987;28;20022;-74
2021/08/24 00:29:08;;;;;;;12.95;10.10;;;;;;;17.51;70.97;98434.09;5023452;28;20055;-73
2021/08/24 00:31:33;;;;;;;11.48;9.35;;;;;;;17.53;70.91;98440.09;5022521;28;20024;-73
2021/08/24 00:33:59;;;;;;;12.80;9.88;;;;;;;17.49;70.95;98439.16;5023774;28;20026;-74
2021/08/24 00:36:24;;;;;;;15.40;10.45;;;;;;;17.40;70.75;98432.91;5024361;28;20121;-74
2021/08/24 00:38:50;;;;;;;11.68;9.32;;;;;;;17.39;70.87;98432.09;5023835;28;20618;-73
2021/08/24 00:41:16;;;;;;;13.40;10.52;;;;;;;17.41;70.76;98426.19;5023606;28;20033;-73
2021/08/24 00:43:43;;;;;;;13.75;10.45;;;;;;;17.42;70.45;98433.38;5024539;28;20036;-73
2021/08/24 00:46:14;;;;;;;13.27;9.65;;;;;;;17.44;70.62;98428.28;5024377;28;20477;-73
2021/08/24 00:48:41;;;;;;;13.25;9.70;;;;;;;17.44;70.74;98425.53;5024211;28;20079;-74
2021/08/24 00:51:07;;;;;;;12.55;9.88;;;;;;;17.46;70.53;98428.75;5023497;28;20021;-74
2021/08/24 00:53:35;;;;;;;12.00;9.20;;;;;;;17.44;70.51;98436.59;5024462;28;20026;-73
2021/08/24 00:56:01;;;;;;;12.05;9.18;;;;;;;17.44;70.38;98428.28;5004759;28;20402;-72
2021/08/24 00:58:27;;;;;;;10.20;8.32;;;;;;;17.47;70.48;98429.59;5006628;28;20033;-73
2021/08/24 01:00:53;;;;;;;12.65;9.43;;;;;;;17.48;70.67;98432.00;5023055;28;20086;-72
2021/08/24 01:03:22;;;;;;;13.75;9.80;;;;;;;17.46;70.52;98431.53;5024111;28;20029;-72
2021/08/24 01:05:50;;;;;;;14.32;9.57;;;;;;;17.34;70.28;98425.94;5023860;28;21423;-72
2021/08/24 01:08:29;;;;;;;13.48;10.00;;;;;;;17.16;69.93;98433.63;5023834;28;20036;-71
2021/08/24 01:11:17;;;;;;;13.90;10.15;;;;;;;17.08;70.08;98430.63;5005927;28;20807;-71
2021/08/24 01:13:58;;;;;;;13.37;9.77;;;;;;;17.14;70.39;98433.97;5023996;28;20033;-71
2021/08/24 01:16:42;;;;;;;13.00;10.10;;;;;;;17.12;70.41;98436.28;5024236;28;20417;-71
2021/08/24 01:19:07;;;;;;;12.25;8.95;;;;;;;17.19;70.63;98433.78;5023964;28;20528;-71
2021/08/24 01:22:30;;;;;;;12.60;9.88;;;;;;;17.24;70.55;98439.09;5022982;28;20025;-71
2021/08/24 01:25:20;;;;;;;13.93;9.45;;;;;;;17.29;70.75;98440.06;4943862;29;20163;-71
2021/08/24 01:28:01;;;;;;;14.18;9.93;;;;;;;17.32;70.56;98439.38;4943127;29;20114;-71
2021/08/24 01:30:27;;;;;;;13.57;9.82;;;;;;;17.32;70.54;98445.72;5012582;28;20103;-72
2021/08/24 01:32:55;;;;;;;15.23;10.10;;;;;;;17.26;70.28;98444.28;5023194;28;20408;-72
2021/08/24 01:35:44;;;;;;;15.00;9.80;;;;;;;17.22;70.46;98448.91;5023969;28;20033;-72
2021/08/24 01:38:23;;;;;;;14.63;10.13;;;;;;;17.25;70.35;98456.53;5022733;28;20140;-72
2021/08/24 01:41:14;;;;;;;17.40;10.82;;;;;;;17.25;70.48;98456.53;5022451;28;20033;-72
2021/08/24 01:43:45;;;;;;;16.20;10.75;;;;;;;17.25;70.42;98456.53;5023931;28;20022;-72
2021/08/24 01:46:24;;;;;;;16.80;11.05;;;;;;;17.25;70.48;98462.06;5022657;28;20025;-71
2021/08/24 01:48:53;;;;;;;18.00;11.27;;;;;;;17.28;70.29;98460.59;5024083;28;20057;-72
2021/08/24 01:51:22;;;;;;;17.20;10.82;;;;;;;17.29;70.68;98456.69;5022534;28;20565;-72
2021/08/24 01:53:58;;;;;;;17.35;11.43;;;;;;;17.23;70.31;98454.13;5022734;28;20067;-72
2021/08/24 01:56:28;;;;;;;18.05;11.45;;;;;;;17.09;70.36;98457.19;5027378;28;20059;-72
2021/08/24 01:59:03;;;;;;;16.60;10.57;;;;;;;17.00;70.43;98455.63;5026818;28;20072;-72
2021/08/24 02:01:37;;;;;;;17.35;11.40;;;;;;;17.06;70.46;98445.97;5026794;28;20520;-72
2021/08/24 02:04:09;;;;;;;16.02;10.98;;;;;;;17.16;70.86;98450.25;5026805;28;20021;-72
2021/08/24 02:06:38;;;;;;;18.65;11.32;;;;;;;17.23;70.83;98444.97;5027719;28;20048;-72
2021/08/24 02:09:29;;;;;;;18.63;10.90;;;;;;;17.26;70.72;98449.84;5028023;28;20413;-72
2021/08/24 02:11:54;;;;;;;15.80;10.32;;;;;;;17.34;71.05;98437.03;5027143;28;20042;-72
2021/08/24 02:14:20;;;;;;;16.25;11.32;;;;;;;17.31;70.92;98446.06;5026407;28;21208;-72
2021/08/24 02:16:49;;;;;;;14.90;10.18;;;;;;;17.31;70.84;98444.09;5027769;28;20049;-72
2021/08/24 02:19:25;;;;;;;15.77;10.43;;;;;;;17.34;70.84;98437.84;5027259;28;20022;-72
2021/08/24 02:21:59;;;;;;;14.18;10.00;;;;;;;17.38;70.93;98440.75;5026482;28;20136;-72
2021/08/24 02:24:43;;;;;;;14.30;10.00;;;;;;;17.40;70.69;98439.28;5009540;28;20893;-72
2021/08/24 02:27:14;;;;;;;15.85;11.30;;;;;;;17.46;70.61;98439.06;5027223;28;20064;-72
2021/08/24 02:29:39;;;;;;;14.73;10.38;;;;;;;17.46;70.85;98442.63;5009357;28;20568;-72
2021/08/24 02:32:09;;;;;;;15.45;9.85;;;;;;;17.48;70.84;98445.06;5026407;28;20037;-72
2021/08/24 02:34:49;;;;;;;17.42;13.27;;;;;;;17.46;70.59;98447.38;5009486;28;20493;-72
2021/08/24 02:37:24;;;;;;;13.52;9.77;;;;;;;17.46;70.89;98442.63;5026951;28;20045;-71
2021/08/24 02:39:52;;;;;;;14.05;9.85;;;;;;;17.47;70.80;98443.44;5026882;28;20030;-71
2021/08/24 02:42:38;;;;;;;15.20;9.95;;;;;;;17.44;70.56;98439.38;5025961;28;20083;-71
2021/08/24 02:45:11;;;;;;;15.00;10.13;;;;;;;17.40;70.35;98438.44;5026623;28;20057;-71
2021/08/24 02:47:38;;;;;;;16.55;10.75;;;;;;;17.29;70.32;98446.38;5026503;28;20477;-72
2021/08/24 02:50:05;;;;;;;14.90;10.32;;;;;;;17.16;71.02;98445.53;5025100;28;20033;-71
2021/08/24 02:52:34;;;;;;;15.60;10.30;;;;;;;17.03;70.69;98435.56;5025595;28;20026;-71
2021/08/24 02:55:00;;;;;;;15.75;10.82;;;;;;;16.91;70.58;98439.84;5026931;28;20057;-72
2021/08/24 02:57:26;;;;;;;13.82;9.98;;;;;;;16.90;71.35;98441.03;5026888;28;20049;-72
2021/08/24 02:59:51;;;;;;;15.35;10.75;;;;;;;16.89;71.50;98436.63;5026404;28;20268;-71
2021/08/24 03:02:17;;;;;;;14.68;10.55;;;;;;;16.88;71.40;98436.97;5025183;28;20026;-71
2021/08/24 03:04:42;;;;;;;12.82;10.07;;;;;;;16.95;71.57;98428.91;5026336;28;20029;-71
2021/08/24 03:07:26;;;;;;;14.85;10.98;;;;;;;16.98;71.22;98431.03;5025397;28;20029;-72
2021/08/24 03:09:52;;;;;;;13.55;9.75;;;;;;;17.01;71.76;98430.34;5026293;28;20025;-72
2021/08/24 03:12:33;;;;;;;15.02;10.02;;;;;;;17.09;71.75;98426.69;5025480;28;20614;-71
2021/08/24 03:15:07;;;;;;;14.88;10.18;;;;;;;17.17;71.77;98425.00;5026329;28;20045;-71
2021/08/24 03:17:50;;;;;;;13.48;10.30;;;;;;;17.24;71.57;98436.34;5026729;28;20384;-71
2021/08/24 03:20:20;;;;;;;17.52;10.63;;;;;;;17.19;71.32;98428.22;5008495;28;20033;-71
2021/08/24 03:22:47;;;;;;;14.85;10.38;;;;;;;17.15;71.16;98430.06;5024959;28;20409;-72
2021/08/24 03:25:13;;;;;;;13.40;10.15;;;;;;;17.19;71.56;98416.31;5024959;28;20046;-71
2021/08/24 03:27:42;;;;;;;16.10;10.75;;;;;;;17.26;71.66;98419.34;5025897;28;20029;-71
2021/08/24 03:30:11;;;;;;;14.02;10.60;;;;;;;17.30;71.70;98425.03;5026067;28;20056;-72
2021/08/24 03:32:37;;;;;;;14.83;10.50;;;;;;;17.27;71.20;98426.50;5023287;28;20075;-72
2021/08/24 03:35:03;;;;;;;14.60;11.00;;;;;;;17.15;71.05;98432.00;5026339;28;20474;-72
2021/08/24 03:37:28;;;;;;;19.42;11.80;;;;;;;17.15;71.18;98432.84;5025834;28;20045;-71
2021/08/24 03:39:54;;;;;;;14.90;10.70;;;;;;;17.19;71.58;98430.19;5026831;28;20044;-71
2021/08/24 03:42:19;;;;;;;16.63;11.65;;;;;;;17.23;71.68;98437.50;5024635;28;20125;-71
2021/08/24 03:44:46;;;;;;;16.48;10.60;;;;;;;17.26;71.54;98428.50;5025681;28;20029;-71
2021/08/24 03:47:12;;;;;;;17.23;11.75;;;;;;;17.16;71.35;98433.63;5025878;28;20112;-71
2021/08/24 03:49:37;;;;;;;15.77;11.25;;;;;;;16.98;71.36;98431.03;5024161;28;20029;-71
2021/08/24 03:52:04;;;;;;;16.58;11.68;;;;;;;16.96;71.62;98438.88;5024651;28;20036;-71
2021/08/24 03:54:29;;;;;;;17.02;11.98;;;;;;;17.01;71.82;98438.69;5025399;28;20030;-71
2021/08/24 03:56:55;;;;;;;16.60;11.75;;;;;;;17.06;71.80;98440.41;5025914;28;21271;-71
2021/08/24 03:59:20;;;;;;;16.88;12.23;;;;;;;16.96;71.63;98442.44;5007241;28;20052;-72
2021/08/24 04:01:46;;;;;;;18.33;12.02;;;;;;;16.90;71.84;98442.97;5024459;28;20065;-71
2021/08/24 04:04:11;;;;;;;19.85;13.52;;;;;;;16.93;72.10;98440.31;5007460;28;20419;-72
2021/08/24 04:06:37;;;;;;;21.58;14.80;;;;;;;16.99;71.99;98449.28;5025523;28;20079;-71
2021/08/24 04:09:02;;;;;;;20.63;14.60;;;;;;;17.03;72.09;98454.94;5025502;28;20416;-72
2021/08/24 04:11:27;;;;;;;17.42;12.68;;;;;;;16.92;71.72;98454.53;5006328;28;20412;-72
2021/08/24 04:13:53;;;;;;;18.85;12.43;;;;;;;16.83;72.26;98460.13;5006872;28;20844;-72
2021/08/24 04:16:18;;;;;;;19.92;13.13;;;;;;;16.80;72.28;98461.59;5007632;28;20073;-72
2021/08/24 04:18:44;;;;;;;18.33;13.23;;;;;;;16.85;72.54;98459.78;5024511;28;20055;-72
2021/08/24 04:21:14;;;;;;;16.08;12.30;;;;;;;16.90;72.33;98468.72;5023918;28;20023;-72
2021/08/24 04:23:41;;;;;;;17.90;12.38;;;;;;;16.88;72.60;98467.44;5025016;28;20649;-72
2021/08/24 04:26:07;;;;;;;19.88;12.80;;;;;;;16.91;72.82;98462.00;5007163;28;20025;-72
2021/08/24 04:28:32;;;;;;;18.80;13.02;;;;;;;16.91;72.60;98463.97;5007516;28;20596;-72
2021/08/24 04:30:58;;;;;;;16.67;12.00;;;;;;;16.91;72.61;98463.97;5006310;28;20144;-72
2021/08/24 04:33:24;;;;;;;15.63;11.82;;;;;;;16.95;72.60;98474.03;5025033;28;20387;-72
2021/08/24 04:35:53;;;;;;;15.82;11.65;;;;;;;16.97;72.93;98473.75;5025336;28;20043;-72
2021/08/24 04:38:19;;;;;;;16.60;11.45;;;;;;;17.02;72.89;98476.31;5025203;28;20485;-72
2021/08/24 04:40:45;;;;;;;16.27;11.75;;;;;;;17.08;72.75;98474.97;5023425;28;20033;-71
2021/08/24 04:43:11;;;;;;;16.15;11.80;;;;;;;17.15;72.78;98487.44;5023000;28;20060;-71
2021/08/24 04:45:37;;;;;;;16.63;11.73;;;;;;;17.16;72.61;98483.50;5024888;28;20123;-71
2021/08/24 04:48:02;;;;;;;17.80;13.10;;;;;;;17.20;73.08;98484.47;5007309;28;20064;-72
2021/08/24 04:50:28;;;;;;;17.50;12.18;;;;;;;17.20;72.75;98495.53;5024532;28;20104;-72
2021/08/24 04:52:53;;;;;;;19.02;12.98;;;;;;;17.19;72.59;98491.16;5023975;28;20064;-72
2021/08/24 04:55:19;;;;;;;16.98;12.25;;;;;;;17.08;72.83;98497.13;5024510;28;20033;-72
2021/08/24 04:57:44;;;;;;;19.17;13.95;;;;;;;17.04;72.75;98496.19;5024684;28;20402;-72
2021/08/24 05:00:10;;;;;;;18.10;12.52;;;;;;;17.03;72.57;98504.81;5024459;28;20047;-72
2021/08/24 05:02:36;;;;;;;16.52;12.85;;;;;;;17.00;72.80;98499.94;5023004;28;20041;-72
2021/08/24 05:05:01;;;;;;;19.25;13.50;;;;;;;16.98;73.76;98502.25;5024860;28;20060;-73
2021/08/24 05:07:28;;;;;;;17.73;12.95;;;;;;;16.97;72.94;98504.22;5025095;28;20041;-74
2021/08/24 05:09:53;;;;;;;17.75;12.18;;;;;;;17.04;73.01;98506.44;5024544;28;20017;-75
2021/08/24 05:12:19;;;;;;;18.30;12.57;;;;;;;17.07;73.17;98503.81;5023836;28;20044;-74
2021/08/24 05:14:44;;;;;;;22.35;14.65;;;;;;;17.15;73.48;98501.28;5006150;28;20042;-74
2021/08/24 05:17:10;;;;;;;20.80;13.73;;;;;;;17.15;73.06;98498.50;5024144;28;20057;-74
2021/08/24 05:19:35;;;;;;;21.23;14.90;;;;;;;17.17;73.52;98505.34;5024891;28;20040;-74
2021/08/24 05:22:00;;;;;;;19.05;12.98;;;;;;;17.15;73.32;98491.03;5024003;28;20017;-75
2021/08/24 05:24:26;;;;;;;20.13;13.38;;;;;;;17.19;73.78;98497.50;5023667;28;20485;-74
2021/08/24 05:26:51;;;;;;;18.13;12.77;;;;;;;17.08;73.38;98502.66;5024070;28;20773;-74
2021/08/24 05:29:17;;;;;;;17.52;13.10;;;;;;;17.08;73.35;98505.44;5025026;28;20060;-74
2021/08/24 05:31:43;;;;;;;20.35;13.70;;;;;;;17.10;73.64;98497.59;5027171;28;20030;-75
2021/08/24 05:34:09;;;;;;;20.38;13.50;;;;;;;17.12;73.31;98502.78;5028452;28;20385;-74
2021/08/24 05:36:34;;;;;;;19.60;14.10;;;;;;;17.13;73.34;98512.72;5026815;28;20037;-74
2021/08/24 05:39:02;;;;;;;18.45;12.20;;;;;;;17.08;73.35;98505.44;5028290;28;20029;-75
2021/08/24 05:41:29;;;;;;;18.38;13.07;;;;;;;17.10;73.33;98516.16;5027797;28;20420;-75
2021/08/24 05:43:54;;;;;;;19.15;13.63;;;;;;;17.10;73.88;98513.41;5028124;28;20025;-75
2021/08/24 05:46:19;;;;;;;20.45;14.57;;;;;;;17.06;73.72;98516.03;5027664;28;20040;-75
2021/08/24 05:48:45;;;;;;;23.52;15.65;;;;;;;17.07;73.63;98519.63;5027867;28;20429;-75
2021/08/24 05:51:17;;;;;;;22.13;14.40;;;;;;;17.07;73.63;98514.06;5027084;28;20026;-75
2021/08/24 05:53:43;;;;;;;21.17;13.70;;;;;;;17.07;73.71;98525.97;5026101;28;20068;-75
2021/08/24 05:56:10;;;;;;;19.65;13.70;;;;;;;17.06;73.63;98520.75;5027505;28;20025;-75
2021/08/24 05:58:36;;;;;;;19.20;13.52;;;;;;;17.07;73.57;98527.94;5027716;28;20033;-75
2021/08/24 06:01:01;;;;;;;18.30;13.75;;;;;;;17.07;73.87;98523.22;5027362;28;20144;-75
2021/08/24 06:03:27;;;;;;;18.17;13.50;;;;;;;17.08;74.19;98527.59;5027573;28;20030;-75
2021/08/24 06:05:52;;;;;;;17.67;12.52;;;;;;;17.08;73.75;98533.16;5027397;28;20102;-76
2021/08/24 06:08:17;;;;;;;19.95;13.13;;;;;;;17.09;74.28;98526.47;5026984;28;20466;-75
2021/08/24 06:10:43;;;;;;;15.40;10.90;;;;;;;17.01;73.55;98527.31;5008886;28;20037;-75
2021/08/24 06:13:09;;;;;;;17.50;12.73;;;;;;;16.98;73.97;98529.94;5027311;28;20022;-75
2021/08/24 06:15:35;;;;;;;16.83;11.88;;;;;;;17.02;74.17;98540.03;5006543;28;20042;-75
2021/08/24 06:18:01;;;;;;;17.75;12.48;;;;;;;17.04;73.91;98537.75;5007706;28;20671;-75
2021/08/24 06:20:27;;;;;;;18.17;12.77;;;;;;;17.10;73.88;98535.56;5007057;28;20512;-75
2021/08/24 06:22:52;;;;;;;23.48;15.13;;;;;;;17.08;74.06;98537.88;5007006;28;20049;-76
2021/08/24 06:25:19;;;;;;;38.13;25.73;;;;;;;17.09;74.12;98542.25;5007366;28;20064;-75
2021/08/24 06:27:44;;;;;;;21.65;14.90;;;;;;;17.15;74.31;98548.41;5007085;28;20075;-75
2021/08/24 06:30:11;;;;;;;38.75;21.90;;;;;;;17.17;74.55;98560.78;5007135;28;20030;-75
2021/08/24 06:32:48;;;;;;;25.50;15.52;;;;;;;17.13;73.90;98559.84;5005366;28;20026;-75
2021/08/24 06:35:14;;;;;;;30.08;19.02;;;;;;;17.10;74.18;98558.56;5006541;28;20022;-75
2021/08/24 06:37:40;;;;;;;18.25;13.05;;;;;;;17.13;74.37;98559.00;5038969;28;20441;-75
2021/08/24 06:40:07;;;;;;;12.43;9.93;;;;;;;17.11;74.17;98565.72;5006229;28;20030;-76
2021/08/24 06:42:44;;;;;;;12.23;9.10;;;;;;;17.03;74.81;98574.06;5003799;28;20030;-76
2021/08/24 06:45:17;;;;;;;7.90;6.35;;;;;;;16.92;74.15;98579.97;5005633;28;20060;-76
2021/08/24 06:47:43;;;;;;;9.48;5.95;;;;;;;16.83;74.22;98593.09;5005741;28;20080;-75
2021/08/24 06:50:09;;;;;;;7.80;5.65;;;;;;;16.75;74.16;98596.72;5007641;28;20025;-75
2021/08/24 06:52:34;;;;;;;7.75;5.70;;;;;;;16.65;74.08;98598.72;5005795;28;20120;-75
2021/08/24 06:54:59;;;;;;;6.18;5.47;;;;;;;16.58;73.61;98603.16;5006065;28;20049;-74
2021/08/24 06:57:25;;;;;;;7.68;5.50;;;;;;;16.50;73.95;98599.28;5006067;28;20783;-74
2021/08/24 06:59:50;;;;;;;8.30;6.55;;;;;;;16.40;73.87;98599.66;5007009;28;20042;-73
2021/08/24 07:02:15;;;;;;;9.60;6.22;;;;;;;16.34;73.69;98610.91;5006091;28;20109;-74
2021/08/24 07:04:42;;;;;;;9.23;6.30;;;;;;;16.34;73.99;98602.59;5003403;28;20026;-73
2021/08/24 07:07:07;;;;;;;8.27;6.45;;;;;;;16.33;73.91;98602.91;5006778;28;20022;-72
2021/08/24 07:09:33;;;;;;;7.68;5.90;;;;;;;16.31;74.17;98617.09;5006700;28;20281;-73
2021/08/24 07:11:58;;;;;;;8.35;6.18;;;;;;;16.27;73.59;98610.59;5005081;28;20052;-73
2021/08/24 07:14:23;;;;;;;8.35;6.90;;;;;;;16.31;74.27;98614.31;5012980;28;20037;-73
2021/08/24 07:16:49;;;;;;;8.02;6.50;;;;;;;16.29;74.08;98613.03;5026165;28;20456;-73
2021/08/24 07:19:14;;;;;;;7.40;6.63;;;;;;;16.30;73.95;98618.25;5026329;28;20382;-73
2021/08/24 07:21:40;;;;;;;8.82;6.90;;;;;;;16.28;73.83;98625.25;5025362;28;20073;-73
2021/08/24 07:24:05;;;;;;;7.75;5.93;;;;;;;16.27;74.16;98620.88;5026055;28;20474;-74
2021/08/24 07:26:30;;;;;;;7.00;5.10;;;;;;;16.24;74.38;98616.78;5017991;28;20103;-73
2021/08/24 07:28:56;;;;;;;4.22;3.53;;;;;;;16.21;74.14;98628.50;5022428;28;20037;-73
2021/08/24 07:31:22;;;;;;;4.82;3.70;;;;;;;16.22;73.83;98635.66;5004393;28;20067;-74
2021/08/24 07:33:47;;;;;;;3.95;3.35;;;;;;;16.21;74.24;98629.34;5019024;28;20079;-73
2021/08/24 07:36:13;;;;;;;3.70;3.28;;;;;;;16.19;74.17;98637.16;5029087;28;20566;-72
2021/08/24 07:38:40;;;;;;;4.20;3.08;;;;;;;16.19;74.28;98644.63;5029137;28;20107;-72
2021/08/24 07:41:05;;;;;;;7.15;3.45;;;;;;;16.19;74.37;98648.22;5027880;28;20068;-73
2021/08/24 07:43:32;;;;;;;6.15;3.60;;;;;;;16.19;74.22;98652.94;5028909;28;20057;-75
2021/08/24 07:45:58;;;;;;;3.30;3.00;;;;;;;16.19;74.06;98651.00;5028911;28;20083;-74
2021/08/24 07:48:24;;;;;;;6.18;3.30;;;;;;;16.16;74.32;98659.13;5029744;28;20029;-72
2021/08/24 07:50:51;;;;;;;3.28;2.75;;;;;;;16.09;74.01;98658.84;5029433;28;20039;-74
2021/08/24 07:53:19;;;;;;;3.42;2.88;;;;;;;16.05;74.00;98665.03;5028927;28;20029;-74
2021/08/24 07:55:45;;;;;;;4.95;2.85;;;;;;;16.04;73.97;98663.41;5029865;28;20031;-74
2021/08/24 07:58:10;;;;;;;5.43;2.97;;;;;;;16.08;74.43;98671.84;5029710;28;20393;-75
2021/08/24 08:00:35;;;;;;;2.75;2.00;;;;;;;16.06;74.64;98663.06;5029225;28;20037;-75
2021/08/24 08:03:01;;;;;;;2.67;2.03;;;;;;;16.04;74.04;98680.00;5030093;28;20514;-74
2021/08/24 08:05:26;;;;;;;2.38;1.58;;;;;;;16.01;74.36;98680.66;5010885;28;20037;-74
2021/08/24 08:07:53;;;;;;;1.92;1.48;;;;;;;16.02;74.33;98682.28;5028461;28;20025;-74
2021/08/24 08:10:18;;;;;;;2.42;1.42;;;;;;;15.98;74.25;98686.00;5029015;28;20029;-75
2021/08/24 08:12:43;;;;;;;3.05;1.73;;;;;;;15.97;73.97;98693.50;5011237;28;20394;-74
2021/08/24 08:15:11;;;;;;;3.05;1.60;;;;;;;15.99;73.88;98693.16;5029458;28;20042;-74
2021/08/24 08:17:37;;;;;;;1.60;1.38;;;;;;;15.97;74.17;98699.03;5027138;28;20072;-75
2021/08/24 08:20:04;;;;;;;2.03;1.27;;;;;;;15.98;74.28;98697.91;5030152;28;20057;-75
2021/08/24 08:22:30;;;;;;;2.20;1.52;;;;;;;15.93;73.45;98711.88;5028808;28;20025;-75
2021/08/24 08:24:55;;;;;;;2.40;1.20;;;;;;;15.91;74.06;98709.44;5029724;28;20031;-74
2021/08/24 08:27:21;;;;;;;2.15;1.40;;;;;;;15.87;74.32;98711.25;5028936;28;20100;-73
2021/08/24 08:29:46;;;;;;;1.55;1.00;;;;;;;15.85;74.40;98720.97;5029025;28;20031;-72
2021/08/24 08:32:20;;;;;;;1.40;1.20;;;;;;;15.81;74.04;98719.97;5029672;28;20528;-74
2021/08/24 08:34:45;;;;;;;2.58;1.35;;;;;;;15.77;73.85;98711.53;5029420;28;20079;-72
2021/08/24 08:37:10;;;;;;;2.50;1.80;;;;;;;15.74;73.87;98726.81;5010422;28;20065;-73
2021/08/24 08:39:36;;;;;;;1.83;1.50;;;;;;;15.71;74.14;98729.41;5011372;28;20117;-74
2021/08/24 08:42:28;;;;;;;3.65;1.98;;;;;;;15.68;73.43;98739.19;5009791;28;20079;-71
2021/08/24 08:45:11;;;;;;;3.65;1.50;;;;;;;15.62;73.45;98732.19;5012093;28;20033;-75
2021/08/24 08:48:14;;;;;;;3.03;1.52;;;;;;;15.60;73.94;98739.97;5010563;28;20045;-73
2021/08/24 08:51:06;;;;;;;3.30;2.33;;;;;;;15.53;73.80;98748.72;5027460;28;20520;-74
2021/08/24 08:53:40;;;;;;;4.75;2.35;;;;;;;15.49;73.64;98747.75;5026743;28;20029;-74
2021/08/24 08:56:20;;;;;;;7.47;4.40;;;;;;;15.49;73.40;98761.56;5028584;28;20068;-73
2021/08/24 08:58:53;;;;;;;2.85;1.83;;;;;;;15.46;74.02;98760.25;5027040;28;20063;-73
2021/08/24 09:01:33;;;;;;;2.10;1.38;;;;;;;15.43;73.87;98771.97;5026680;28;20040;-74
2021/08/24 09:04:27;;;;;;;2.28;1.42;;;;;;;15.41;73.84;98771.47;5028086;28;20109;-74
2021/08/24 09:07:01;;;;;;;2.78;2.13;;;;;;;15.41;73.63;98776.19;5026676;28;20118;-73
2021/08/24 09:09:27;;;;;;;6.90;3.63;;;;;;;15.39;73.76;98775.69;5027503;28;20033;-74
2021/08/24 09:11:53;;;;;;;4.28;2.70;;;;;;;15.41;73.42;98785.28;5025968;28;20034;-74
2021/08/24 09:14:29;;;;;;;3.63;2.50;;;;;;;15.43;73.83;98782.22;5026604;28;20056;-74
2021/08/24 09:17:09;;;;;;;5.45;2.92;;;;;;;15.45;73.75;98780.75;5010385;28;20029;-72
2021/08/24 09:19:46;;;;;;;5.15;2.20;;;;;;;15.48;73.90;98793.13;5029543;28;20033;-76
2021/08/24 09:22:15;;;;;;;2.78;1.90;;;;;;;15.45;73.35;98805.63;5026554;28;20030;-73
2021/08/24 09:24:41;;;;;;;5.35;2.38;;;;;;;15.42;73.19;98797.97;5021819;28;20029;-73
2021/08/24 09:27:28;;;;;;;4.72;2.70;;;;;;;15.41;73.33;98807.41;5027494;28;20026;-73
2021/08/24 09:29:57;;;;;;;6.90;3.10;;;;;;;15.42;73.76;98806.25;5026106;28;20033;-73
2021/08/24 09:32:25;;;;;;;5.80;3.07;;;;;;;15.43;73.43;98802.38;5026580;28;20037;-73
2021/08/24 09:35:03;;;;;;;5.57;3.00;;;;;;;15.43;73.65;98801.56;5026457;28;20117;-74
2021/08/24 09:37:35;;;;;;;4.65;2.58;;;;;;;15.41;73.44;98804.63;5026505;28;20025;-73
2021/08/24 09:40:04;;;;;;;4.55;2.60;;;;;;;15.40;73.47;98811.28;5028806;28;20029;-74
2021/08/24 09:42:35;;;;;;;4.32;2.90;;;;;;;15.40;73.64;98810.50;5027731;28;20034;-75
2021/08/24 09:45:28;;;;;;;6.22;2.97;;;;;;;15.41;73.08;98806.59;5009479;28;20036;-71
2021/08/24 09:48:00;;;;;;;4.25;2.47;;;;;;;15.43;73.39;98818.94;5019134;28;20124;-70
2021/08/24 09:50:33;;;;;;;4.53;2.83;;;;;;;15.47;73.05;98810.84;5028989;28;20035;-71
2021/08/24 09:53:00;;;;;;;5.50;3.13;;;;;;;15.48;73.55;98809.72;5028511;28;20032;-69
2021/08/24 09:55:28;;;;;;;4.57;2.90;;;;;;;15.54;73.12;98816.69;5028739;28;20112;-69
2021/08/24 09:57:59;;;;;;;4.65;3.13;;;;;;;15.61;73.42;98817.06;5021406;28;20033;-70
2021/08/24 10:00:56;;;;;;;5.70;3.25;;;;;;;15.65;73.48;98817.25;5024559;28;20060;-68
2021/08/24 10:03:32;;;;;;;4.53;3.15;;;;;;;15.66;72.93;98824.41;5029060;28;20041;-72
2021/08/24 10:06:05;;;;;;;4.45;3.20;;;;;;;15.70;73.55;98819.03;5028606;28;20171;-71
2021/08/24 10:08:36;;;;;;;3.90;3.20;;;;;;;15.76;73.40;98824.06;5028446;28;20034;-69
2021/08/24 10:11:31;;;;;;;6.72;3.67;;;;;;;15.81;72.92;98823.13;5028810;28;20163;-71
2021/08/24 10:14:15;;;;;;;5.40;3.03;;;;;;;15.87;73.38;98834.88;5027407;28;20041;-69
2021/08/24 10:16:45;;;;;;;4.75;3.17;;;;;;;15.89;72.85;98838.13;5029962;28;20068;-69
2021/08/24 10:19:19;;;;;;;;;;;;;;;15.91;72.56;98841.41;5031597;28;20131;-69
2021/08/24 10:21:51;;;;;;;4.45;3.03;;;;;;;15.95;72.46;98844.31;5026866;28;19917;-70
2021/08/24 10:24:24;;;;;;;4.20;2.78;;;;;;;15.93;72.55;98844.66;5030286;28;20040;-69
2021/08/24 10:26:55;;;;;;;7.40;3.13;;;;;;;15.95;72.60;98852.63;5032183;28;20036;-70
2021/08/24 10:29:26;;;;;;;5.43;3.40;;;;;;;15.96;72.50;98852.31;5030461;28;20030;-69
2021/08/24 10:31:58;;;;;;;4.63;3.08;;;;;;;15.98;72.47;98855.56;5031810;28;20040;-68
2021/08/24 10:34:27;;;;;;;4.93;3.13;;;;;;;16.05;72.44;98852.31;5013973;28;20069;-70
2021/08/24 10:37:04;;;;;;;4.95;3.40;;;;;;;16.07;72.57;98856.41;5031201;28;20025;-69
2021/08/24 10:39:30;;;;;;;4.90;3.08;;;;;;;16.10;71.83;98862.44;5030684;28;20029;-69
2021/08/24 10:41:55;;;;;;;6.88;4.18;;;;;;;16.13;72.01;98864.53;5011412;28;20025;-70
2021/08/24 10:44:24;;;;;;;5.78;3.20;;;;;;;16.12;71.60;98868.44;5031220;28;20033;-71
2021/08/24 10:47:25;;;;;;;6.22;3.75;;;;;;;16.12;71.58;98865.66;5030490;28;20673;-73
2021/08/24 10:49:51;;;;;;;5.07;3.08;;;;;;;16.13;71.63;98868.13;4999336;28;20056;-70
2021/08/24 10:52:43;;;;;;;5.35;3.55;;;;;;;16.17;71.82;98871.03;5030404;28;20022;-71
2021/08/24 10:55:20;;;;;;;5.03;3.25;;;;;;;16.18;71.70;98880.97;5028184;28;20040;-71
2021/08/24 10:58:04;;;;;;;6.32;3.10;;;;;;;16.19;70.94;98891.75;5030125;28;20098;-70
2021/08/24 11:00:39;;;;;;;4.63;2.95;;;;;;;16.16;71.00;98888.78;5031852;28;20052;-72
2021/08/24 11:03:35;;;;;;;7.20;3.58;;;;;;;16.13;71.12;98887.50;5014842;28;20052;-70
2021/08/24 11:06:19;;;;;;;6.93;2.97;;;;;;;16.15;70.84;98893.50;5009764;28;20137;-70
2021/08/24 11:09:16;;;;;;;7.00;3.88;;;;;;;16.18;70.56;98889.28;5031242;28;20028;-70
2021/08/24 11:12:21;;;;;;;8.75;3.85;;;;;;;16.16;71.09;98903.44;5031171;28;20084;-70
2021/08/24 11:14:57;;;;;;;6.78;3.10;;;;;;;16.14;70.71;98902.13;5031166;28;20049;-71
2021/08/24 11:17:39;;;;;;;6.75;3.85;;;;;;;16.07;70.26;98911.75;5032007;28;20029;-71
2021/08/24 11:20:19;;;;;;;4.82;3.10;;;;;;;16.04;70.17;98912.38;5031504;28;20056;-70
2021/08/24 11:23:37;;;;;;;5.55;2.88;;;;;;;16.00;70.81;98914.16;5030946;28;20036;-69
2021/08/24 11:26:09;;;;;;;4.95;3.03;;;;;;;16.00;70.43;98925.22;4927468;29;20437;-70
2021/08/24 11:28:53;;;;;;;4.22;2.95;;;;;;;16.01;70.66;98928.78;4929670;29;20484;-72
2021/08/24 11:31:33;;;;;;;5.13;3.65;;;;;;;16.00;70.89;98930.75;4987888;28;20051;-71
2021/08/24 11:34:25;;;;;;;6.05;3.00;;;;;;;15.98;71.06;98927.50;5029482;28;20120;-71
2021/08/24 11:36:55;;;;;;;4.65;2.80;;;;;;;15.99;70.83;98931.06;5017847;28;20045;-75
2021/08/24 11:39:35;;;;;;;4.63;3.05;;;;;;;15.99;71.27;98937.41;5013700;28;20040;-70
2021/08/24 11:42:02;;;;;;;;;;;;;;;15.99;71.29;98945.72;5031466;28;20506;-70